createdAt,value
2023-05-05T00:00:06.276Z,60.67
2023-05-05T00:05:29.753Z,61.24
2023-05-05T00:10:58.757Z,61.88
2023-05-05T00:16:02.309Z,67.11
2023-05-05T00:21:06.036Z,62.91
2023-05-05T00:26:09.652Z,63.00
2023-05-05T00:32:35.463Z,58.57
2023-05-05T00:37:39.224Z,56.84
2023-05-05T00:42:46.216Z,57.60
2023-05-05T00:47:56.855Z,58.51
2023-05-05T01:00:20.327Z,60.38
2023-05-05T01:05:26.105Z,61.86
2023-05-05T01:11:21.313Z,63.29
2023-05-05T01:16:31.258Z,63.34
2023-05-05T01:21:47.414Z,58.38
2023-05-05T01:27:32.332Z,57.37
2023-05-05T01:39:43.860Z,60.99
2023-05-05T01:44:49.654Z,64.15
2023-05-05T01:49:53.787Z,64.32
2023-05-05T01:54:59.640Z,58.65
2023-05-05T02:00:05.008Z,54.26
2023-05-05T02:05:10.264Z,56.15
2023-05-05T02:11:05.301Z,58.87
2023-05-05T02:16:10.693Z,61.19
2023-05-05T02:21:18.280Z,63.96
2023-05-05T02:26:24.577Z,62.60
2023-05-05T02:31:38.663Z,56.37
2023-05-05T02:36:45.425Z,59.08
2023-05-05T02:41:52.467Z,61.33
2023-05-05T02:46:58.027Z,63.27
2023-05-05T02:52:01.749Z,62.45
2023-05-05T02:57:05.287Z,54.89
2023-05-05T03:16:09.542Z,63.09
2023-05-05T03:21:14.578Z,57.11
2023-05-05T03:26:44.664Z,59.15
2023-05-05T03:31:49.056Z,61.54
2023-05-05T03:36:55.701Z,65.28
2023-05-05T03:42:51.249Z,60.37
2023-05-05T03:47:54.994Z,57.60
2023-05-05T03:52:58.507Z,59.36
2023-05-05T03:58:02.855Z,62.58
2023-05-05T04:03:07.114Z,62.85
2023-05-05T04:08:11.150Z,61.58
2023-05-05T04:13:15.158Z,56.20
2023-05-05T04:18:19.141Z,57.81
2023-05-05T04:31:52.584Z,62.56
2023-05-05T04:36:56.141Z,57.18
2023-05-05T04:42:50.047Z,59.63
2023-05-05T04:47:54.130Z,62.98
2023-05-05T05:00:04.923Z,59.11
2023-05-05T05:05:13.300Z,62.02
2023-05-05T05:11:51.289Z,62.43
2023-05-05T05:16:55.409Z,57.82
2023-05-05T05:21:58.854Z,56.51
2023-05-05T05:27:09.976Z,59.98
2023-05-05T05:32:15.834Z,62.73
2023-05-05T05:37:19.470Z,59.15
2023-05-05T05:42:23.270Z,58.38
2023-05-05T05:47:27.138Z,60.04
2023-05-05T05:52:31.259Z,61.33
2023-05-05T05:57:35.766Z,62.47
2023-05-05T06:02:39.682Z,57.68
2023-05-05T06:08:34.275Z,53.98
2023-05-05T06:13:37.920Z,56.84
2023-05-05T06:18:44.166Z,58.37
2023-05-05T06:23:47.940Z,58.93
2023-05-05T06:28:51.490Z,59.05
2023-05-05T06:33:55.450Z,58.78
2023-05-05T06:38:59.802Z,57.76
2023-05-05T06:44:05.596Z,57.37
2023-05-05T06:49:10.182Z,56.09
2023-05-05T06:54:14.716Z,55.09
2023-05-05T06:59:18.741Z,54.57
2023-05-05T07:04:23.364Z,54.18
2023-05-05T07:09:27.447Z,53.90
2023-05-05T07:14:31.031Z,53.54
2023-05-05T07:19:36.754Z,52.27
2023-05-05T07:24:41.325Z,51.20
2023-05-05T07:29:48.223Z,51.22
2023-05-05T07:34:52.579Z,50.91
2023-05-05T07:39:58.190Z,50.84
2023-05-05T07:45:04.925Z,50.28
2023-05-05T07:50:10.623Z,49.72
2023-05-05T07:55:14.531Z,49.18
2023-05-05T08:00:19.753Z,48.18
2023-05-05T08:05:23.528Z,47.43
2023-05-05T08:10:28.093Z,46.89
2023-05-05T08:15:31.670Z,46.72
2023-05-05T08:20:35.467Z,46.47
2023-05-05T08:25:39.020Z,45.88
2023-05-05T08:30:43.166Z,46.03
2023-05-05T08:35:48.411Z,45.19
2023-05-05T08:40:53.000Z,45.25
2023-05-05T08:45:59.248Z,45.12
2023-05-05T08:51:08.278Z,44.81
2023-05-05T08:56:13.695Z,44.62
2023-05-05T09:01:18.571Z,44.49
2023-05-05T09:06:23.724Z,43.28
2023-05-05T09:11:28.408Z,42.94
2023-05-05T09:16:32.231Z,41.92
2023-05-05T09:21:46.660Z,41.39
2023-05-05T09:26:50.643Z,41.27
2023-05-05T09:32:05.842Z,41.02
2023-05-05T09:37:10.911Z,40.25
2023-05-05T09:42:21.252Z,40.61
2023-05-05T09:47:37.884Z,40.04
2023-05-05T09:53:03.944Z,39.73
2023-05-05T09:58:28.594Z,38.16
2023-05-05T10:03:32.480Z,38.66
2023-05-05T10:08:36.109Z,38.51
2023-05-05T10:13:43.959Z,37.88
2023-05-05T10:18:48.885Z,38.45
2023-05-05T10:24:11.964Z,39.47
2023-05-05T10:29:31.783Z,39.59
2023-05-05T10:34:59.657Z,38.29
2023-05-05T10:40:04.604Z,37.06
2023-05-05T10:45:11.094Z,37.55
2023-05-05T10:50:45.049Z,36.36
2023-05-05T10:56:13.829Z,36.85
2023-05-05T11:01:34.036Z,36.97
2023-05-05T11:06:37.663Z,36.93
2023-05-05T11:12:06.896Z,37.12
2023-05-05T11:17:49.223Z,36.48
2023-05-05T11:23:15.228Z,35.71
2023-05-05T11:28:31.662Z,35.47
2023-05-05T11:33:39.691Z,36.03
2023-05-05T11:39:10.463Z,34.40
2023-05-05T11:44:30.984Z,34.89
2023-05-05T11:49:40.584Z,35.29
2023-05-05T11:54:48.913Z,34.27
2023-05-05T12:00:41.029Z,33.46
2023-05-05T12:05:50.472Z,33.15
2023-05-05T12:11:27.018Z,33.31
2023-05-05T12:16:31.814Z,32.50
2023-05-05T12:21:36.253Z,32.56
2023-05-05T12:45:21.421Z,31.62
2023-05-05T12:50:50.475Z,31.48
2023-05-05T12:56:44.654Z,31.80
2023-05-05T13:02:39.520Z,31.48
2023-05-05T13:21:59.882Z,31.48
2023-05-05T13:27:05.068Z,30.63
2023-05-05T13:39:36.409Z,31.18
2023-05-05T13:46:16.129Z,31.08
2023-05-05T13:51:22.875Z,31.05
2023-05-05T13:57:05.366Z,31.04
2023-05-05T14:03:25.299Z,31.29
2023-05-05T14:08:54.808Z,31.33
2023-05-05T14:14:35.702Z,30.96
2023-05-05T14:20:29.657Z,30.36
2023-05-05T14:25:45.606Z,30.29
2023-05-05T14:30:52.709Z,30.27
2023-05-05T14:37:24.794Z,29.90
2023-05-05T14:42:29.253Z,30.32
2023-05-05T14:47:34.962Z,30.20
2023-05-05T14:52:40.538Z,30.23
2023-05-05T14:57:47.490Z,28.06
2023-05-05T15:02:51.232Z,26.96
2023-05-05T15:07:55.146Z,26.57
2023-05-05T15:12:59.236Z,25.80
2023-05-05T15:18:03.164Z,26.24
2023-05-05T15:37:29.437Z,25.94
2023-05-05T15:42:34.207Z,24.81
2023-05-05T15:48:02.758Z,23.39
2023-05-05T15:53:28.449Z,22.37
2023-05-05T16:07:23.128Z,22.75
2023-05-05T16:12:26.965Z,22.60
2023-05-05T16:17:48.366Z,22.76
2023-05-05T16:23:24.482Z,22.94
2023-05-05T16:28:53.148Z,23.26
2023-05-05T16:49:15.259Z,23.30
2023-05-05T16:55:41.547Z,23.66
2023-05-05T17:00:58.447Z,24.34
2023-05-05T17:13:24.675Z,26.22
2023-05-05T17:18:54.085Z,27.18
2023-05-05T17:23:59.474Z,28.08
2023-05-05T17:29:03.174Z,29.44
2023-05-05T17:34:07.189Z,30.31
2023-05-05T17:39:14.176Z,31.26
2023-05-05T17:44:18.867Z,32.14
2023-05-05T17:49:25.499Z,32.77
2023-05-05T17:54:30.587Z,33.27
2023-05-05T17:59:36.078Z,33.94
2023-05-05T18:04:39.681Z,34.29
2023-05-05T18:09:43.411Z,34.69
2023-05-05T18:22:58.041Z,35.27
2023-05-05T18:28:07.811Z,35.76
2023-05-05T18:57:54.749Z,38.33
2023-05-05T19:03:23.959Z,39.19
2023-05-05T19:08:27.919Z,40.22
2023-05-05T19:14:23.321Z,40.53
2023-05-05T19:19:27.655Z,41.31
2023-05-05T19:25:21.843Z,42.03
2023-05-05T19:30:29.078Z,42.75
2023-05-05T19:35:58.198Z,43.17
2023-05-05T19:41:08.203Z,43.48
2023-05-05T19:46:37.299Z,43.78
2023-05-05T19:51:42.288Z,44.14
2023-05-05T19:57:11.031Z,44.71
2023-05-05T20:02:17.656Z,44.95
2023-05-05T20:07:21.649Z,45.70
2023-05-05T20:12:25.723Z,45.89
2023-05-05T20:17:29.632Z,46.46
2023-05-05T20:22:33.536Z,47.03
2023-05-05T20:27:39.610Z,47.27
2023-05-05T20:32:43.673Z,47.70
2023-05-05T20:37:47.476Z,47.80
2023-05-05T20:42:52.779Z,47.84
2023-05-05T20:47:58.794Z,48.10
2023-05-05T20:53:03.577Z,48.32
2023-05-05T20:58:07.821Z,48.50
2023-05-05T21:03:12.260Z,49.09
2023-05-05T21:08:16.927Z,48.99
2023-05-05T21:13:20.779Z,49.89
2023-05-05T21:18:28.643Z,50.12
2023-05-05T21:23:32.413Z,50.55
2023-05-05T21:28:36.512Z,50.88
2023-05-05T21:33:40.725Z,51.00
2023-05-05T21:38:46.705Z,51.34
2023-05-05T21:43:50.627Z,51.66
2023-05-05T21:48:54.658Z,51.93
2023-05-05T21:53:59.616Z,52.56
2023-05-05T21:59:05.591Z,52.75
2023-05-05T22:04:09.887Z,52.94
2023-05-05T22:09:14.767Z,53.25
2023-05-05T22:14:19.738Z,53.54
2023-05-05T22:19:23.762Z,53.54
2023-05-05T22:24:27.685Z,53.66
2023-05-05T22:29:32.691Z,54.09
2023-05-05T22:34:37.716Z,54.41
2023-05-05T22:39:42.846Z,54.63
2023-05-05T22:44:46.789Z,54.33
2023-05-05T22:49:51.770Z,54.46
2023-05-05T22:54:56.504Z,55.05
2023-05-05T23:00:00.636Z,55.56
2023-05-05T23:05:05.654Z,55.69
2023-05-05T23:10:10.029Z,55.65
2023-05-05T23:15:14.764Z,55.94
2023-05-05T23:20:18.801Z,55.75
2023-05-05T23:25:22.661Z,56.04
2023-05-05T23:30:26.661Z,55.80
2023-05-05T23:35:30.780Z,55.78
2023-05-05T23:40:35.913Z,55.81
2023-05-05T23:45:39.471Z,56.08
2023-05-05T23:50:43.695Z,56.27
2023-05-05T23:55:48.864Z,55.94
